Date,TemperatureHighF,TemperatureAvgF,TemperatureLowF,DewpointHighF,DewpointAvgF,DewpointLowF,HumidityHigh,HumidityAvg,HumidityLow,PressureMaxIn,PressureMinIn,WindSpeedMaxMPH,WindSpeedAvgMPH,GustSpeedMaxMPH,PrecipitationSumIn
2014-1-1,49,32,24,30,25,21,93,77,42,30.46,30.21,10,0,10,0.00
2014-1-2,39,34,28,38,32,14,96,92,55,30.22,29.72,15,0,15,0.18
2014-1-3,33,24,15,15,7,3,86,49,30,30.54,29.91,19,2,19,0.00
2014-1-4,38,23,11,20,13,9,91,68,38,30.57,30.35,8,1,8,0.00
2014-1-5,40,35,30,39,33,19,98,93,56,30.35,29.82,4,0,4,0.17
2014-1-6,39,32,7,39,22,-12,98,69,29,30.31,29.72,18,2,18,0.11
2014-1-7,28,13,4,6,-7,-12,82,41,24,30.57,30.30,12,1,12,0.00
2014-1-8,45,22,7,18,10,5,90,65,28,30.68,30.55,7,1,7,0.00
2014-1-9,48,28,17,28,17,7,93,70,20,30.64,30.53,6,0,6,0.00
2014-1-10,45,40,35,44,37,23,97,90,55,30.55,30.13,2,0,2,0.65
2014-1-11,51,45,41,50,44,41,98,98,97,30.13,29.65,7,0,7,1.70
2014-1-12,58,47,29,43,30,27,97,55,32,30.20,29.80,15,2,16,0.00
2014-1-13,49,36,24,44,32,23,97,89,66,30.19,30.00,3,0,3,0.03
2014-1-14,58,46,28,49,38,26,98,79,33,30.01,29.83,13,1,13,0.17
2014-1-15,52,34,24,36,29,23,96,82,47,30.02,29.91,10,0,10,0.00
2014-1-16,45,30,18,23,17,7,94,65,23,30.11,29.97,10,1,10,0.00
2014-1-17,51,32,18,26,20,16,93,68,29,30.06,29.87,15,2,15,0.00
2014-1-18,38,30,22,18,11,6,79,47,33,30.14,29.97,12,2,12,0.00
2014-1-19,50,33,17,28,20,15,92,65,33,30.06,29.98,15,1,15,0.00
2014-1-20,66,40,19,32,22,17,91,59,19,30.00,29.85,15,1,16,0.00
2014-1-21,49,35,24,30,25,12,89,69,40,29.94,29.60,14,1,14,0.00
2014-1-22,34,25,15,12,3,-9,62,42,15,30.15,29.93,11,1,11,0.00
2014-1-23,36,26,14,11,5,-4,74,43,25,30.53,30.15,14,2,14,0.00
2014-1-24,30,16,6,1,-7,-12,71,36,16,30.69,30.30,13,2,13,0.00
2014-1-25,39,21,4,21,7,-1,82,58,27,30.31,29.76,17,1,18,0.00
2014-1-26,53,38,24,21,12,4,77,36,16,30.00,29.87,16,2,16,0.00
2014-1-27,58,41,26,37,28,7,87,63,36,30.12,29.86,12,1,12,0.00
2014-1-28,31,23,18,16,6,-6,87,53,23,30.35,30.12,8,1,8,0.00
2014-1-29,32,20,8,13,7,-1,90,61,25,30.43,30.25,7,1,7,0.00
2014-1-30,37,17,0,13,6,-3,88,65,30,30.50,30.31,8,1,8,0.01
2014-1-31,54,29,11,24,16,9,90,66,25,30.32,30.19,6,0,7,0.02
2014-2-1,56,38,19,36,22,18,93,62,25,30.32,30.16,6,0,6,0.00
2014-2-2,68,43,25,49,34,24,95,74,45,30.17,30.03,8,0,8,0.00
2014-2-3,66,55,40,60,48,35,97,80,47,30.27,29.87,9,1,12,0.69
2014-2-4,43,40,36,36,33,30,95,77,65,30.41,30.15,9,1,9,0.13
2014-2-5,60,42,35,48,36,26,96,84,36,30.18,29.87,13,1,14,0.17
2014-2-6,42,35,29,26,22,20,73,59,41,30.37,30.16,6,1,7,0.00
2014-2-7,49,37,25,32,27,22,88,69,43,30.41,30.28,8,0,8,0.00
2014-2-8,53,40,30,34,31,28,92,70,45,30.32,30.15,6,0,6,0.00
2014-2-9,58,41,28,38,32,26,94,74,44,30.21,30.00,11,1,11,0.00
2014-2-10,39,35,31,36,32,28,95,90,80,30.28,30.08,6,0,6,0.14
2014-2-11,37,33,23,32,25,18,95,74,49,30.43,30.27,7,1,7,0.00
2014-2-12,29,25,22,26,17,10,93,74,50,30.47,29.93,11,1,11,0.00
2014-2-13,44,34,29,34,29,20,95,82,49,29.93,29.60,13,1,13,0.32
2014-2-14,59,43,25,33,25,20,83,52,25,29.83,29.69,12,2,12,0.03
2014-2-15,44,39,25,36,24,7,93,59,23,30.12,29.59,15,2,15,0.01
2014-2-16,57,38,22,30,22,15,85,56,32,30.20,30.05,12,1,12,0.00
2014-2-17,48,35,24,32,25,22,94,71,43,30.40,30.20,8,1,8,0.00
2014-2-18,65,43,24,33,25,17,95,60,16,30.28,30.12,9,1,9,0.00
2014-2-19,74,53,38,57,42,32,96,72,30,30.12,29.95,18,1,18,0.11
2014-2-20,69,54,44,54,44,38,93,70,51,30.20,29.94,6,0,6,0.00
2014-2-21,64,58,41,58,42,1,95,64,8,30.05,29.82,11,2,11,0.83
2014-2-22,66,47,31,34,24,13,88,51,13,30.24,30.05,11,1,11,0.00
2014-2-23,70,46,27,35,29,25,94,62,21,30.15,29.93,12,1,12,0.00
2014-2-24,60,49,30,35,28,15,85,49,21,30.16,29.95,12,1,12,0.00
2014-2-25,61,42,27,29,24,17,84,55,24,30.14,29.95,10,1,10,0.00
2014-2-26,51,38,25,28,23,15,83,59,29,30.00,29.82,10,1,10,0.00
2014-2-27,53,33,15,20,9,-4,91,49,10,30.05,29.84,10,1,11,0.00
2014-2-28,46,30,16,18,13,9,85,53,25,30.36,30.05,8,1,9,0.00
2014-3-1,56,38,24,32,23,17,89,58,34,30.42,30.25,9,1,9,0.00
2014-3-2,69,46,28,47,35,26,94,70,41,30.31,29.92,10,1,10,0.00
2014-3-3,61,46,28,50,41,25,93,83,60,30.29,29.78,12,1,12,0.19
2014-3-4,41,29,18,25,17,8,89,63,35,30.41,30.24,9,1,9,0.01
2014-3-5,56,38,25,30,24,18,88,60,33,30.32,30.15,7,1,7,0.00
2014-3-6,40,34,25,31,20,15,93,58,40,30.43,30.17,9,1,10,0.22
2014-3-7,51,38,29,45,35,28,96,91,65,30.17,30.00,11,1,13,0.89
2014-3-8,69,46,27,45,34,26,97,71,29,30.15,30.01,12,1,12,0.00
2014-3-9,70,52,34,41,34,18,92,58,17,30.13,30.04,9,1,9,0.00
2014-3-10,75,49,27,39,30,24,92,57,17,30.10,29.85,13,1,13,0.00
2014-3-11,80,54,32,41,33,27,92,56,15,29.88,29.69,14,1,14,0.00
2014-3-12,72,56,40,60,49,23,95,77,45,29.76,29.28,17,2,24,0.09
2014-3-13,47,37,26,26,11,0,63,36,15,30.29,29.76,15,3,17,0.00
2014-3-14,60,38,20,26,17,13,84,50,18,30.37,30.12,12,2,15,0.00
2014-3-15,72,54,34,38,31,25,78,46,19,30.12,30.00,13,1,13,0.00
2014-3-16,53,43,38,44,37,28,95,81,38,30.07,29.85,7,1,9,0.76
2014-3-17,37,33,30,35,31,29,95,94,92,30.04,29.86,9,1,9,0.44
2014-3-18,44,36,30,40,33,28,95,90,82,30.24,30.00,8,1,8,0.01
2014-3-19,49,41,34,44,40,33,97,94,82,30.24,30.03,8,0,8,0.02
2014-3-20,66,47,32,41,28,14,97,61,14,30.12,30.01,11,1,11,0.00
2014-3-21,68,47,28,35,26,24,87,52,20,30.22,30.07,14,2,14,0.00
2014-3-22,73,52,36,44,36,32,90,60,27,30.09,29.97,8,1,9,0.00
2014-3-23,55,44,34,47,41,29,95,87,47,30.20,29.96,7,0,7,0.46
2014-3-24,52,37,24,30,23,17,92,64,31,30.31,30.10,10,1,10,0.00
2014-3-25,46,36,30,41,31,22,96,83,40,30.12,29.85,16,1,16,0.09
2014-3-26,48,35,26,24,14,8,77,44,20,30.33,30.12,11,2,11,0.00
2014-3-27,59,37,21,31,20,18,88,58,22,30.50,30.29,16,2,16,0.00
2014-3-28,60,53,36,53,46,29,94,79,70,30.31,30.13,8,1,8,0.00
2014-3-29,64,56,46,61,54,34,97,94,61,30.15,29.64,15,1,15,0.71
2014-3-30,56,46,40,34,29,21,65,54,28,30.07,29.73,18,3,19,0.00
2014-3-31,75,56,39,38,24,16,74,33,12,30.19,30.07,9,1,14,0.00
2014-4-1,82,56,38,43,37,32,87,57,19,30.17,30.01,11,1,11,0.00
2014-4-2,85,61,39,50,42,35,94,59,21,30.12,30.00,16,1,16,0.00
2014-4-3,80,59,47,56,48,40,95,71,34,30.15,29.89,11,1,11,0.13
2014-4-4,76,63,48,59,53,43,96,73,42,29.92,29.75,14,1,14,0.00
2014-4-5,70,60,49,47,36,26,64,43,20,30.08,29.85,9,1,9,0.00
2014-4-6,59,48,37,40,34,30,88,60,37,30.25,30.08,9,1,9,0.00
2014-4-7,51,47,45,49,45,39,97,93,64,30.12,29.71,6,0,6,1.58
2014-4-8,64,54,46,52,45,35,98,74,41,29.78,29.64,10,1,10,0.01
2014-4-9,67,54,39,44,38,26,86,59,24,30.16,29.78,11,1,11,0.00
2014-4-10,72,51,31,40,34,30,95,62,25,30.32,30.16,15,2,15,0.00
2014-4-11,77,57,38,46,39,35,95,61,22,30.24,30.07,14,2,14,0.00
2014-4-12,80,60,42,54,45,40,94,64,30,30.25,30.11,11,1,11,0.00
2014-4-13,80,62,45,57,50,44,96,70,40,30.20,30.06,17,2,17,0.00
2014-4-14,70,65,60,62,58,55,96,78,66,30.07,29.80,13,2,13,0.29
2014-4-15,64,57,32,61,53,24,97,88,55,30.07,29.65,12,1,12,1.06
2014-4-16,58,40,25,30,23,18,90,57,22,30.49,30.05,7,1,11,0.00
2014-4-17,62,42,27,35,28,25,95,64,26,30.61,30.45,11,1,11,0.00
2014-4-18,55,45,35,46,38,33,94,78,57,30.49,30.28,3,0,4,0.11
2014-4-19,57,50,45,51,47,44,96,89,70,30.29,30.17,12,0,12,0.48
2014-4-20,73,54,42,49,42,32,98,71,23,30.34,30.22,10,1,10,0.01
2014-4-21,76,54,34,50,40,33,97,67,31,30.25,29.96,10,1,10,0.00
2014-4-22,76,60,46,59,51,44,96,76,44,29.96,29.74,12,0,12,0.00
2014-4-23,75,59,44,51,35,21,96,50,14,30.02,29.78,8,1,8,0.00
2014-4-24,73,52,34,44,36,32,95,61,27,30.18,29.99,12,1,12,0.00
2014-4-25,72,58,45,64,51,42,91,80,50,30.00,29.76,13,1,13,0.15
2014-4-26,81,62,45,50,45,38,94,60,23,30.06,29.93,12,1,12,0.00
2014-4-27,85,64,44,56,47,42,96,63,25,30.04,29.91,11,1,11,0.00
2014-4-28,75,65,56,64,58,51,94,81,65,29.97,29.84,8,1,8,0.00
2014-4-29,56,54,52,55,52,51,97,94,84,30.07,29.86,5,0,6,0.45
2014-4-30,72,60,53,66,58,52,98,91,73,30.07,29.87,6,0,8,0.02
2014-5-1,79,66,52,61,54,40,97,70,34,29.93,29.78,15,1,15,0.00
2014-5-2,73,56,42,49,42,36,94,64,28,29.99,29.84,13,1,13,0.00
2014-5-3,77,60,43,49,43,37,96,62,26,29.98,29.88,9,1,14,0.00
2014-5-4,87,64,43,52,45,42,95,60,21,30.05,29.90,17,1,17,0.00
2014-5-5,89,65,49,62,53,48,96,70,26,30.02,29.81,13,1,13,0.00
2014-5-6,89,68,51,60,53,46,97,67,23,29.97,29.86,11,1,11,0.00
2014-5-7,81,69,60,62,60,58,93,75,48,30.12,30.08,6,0,6,0.00
2014-5-8,89,68,49,63,52,41,98,67,20,30.22,30.09,10,1,10,0.00
2014-5-9,84,67,53,64,58,52,97,76,45,30.17,30.07,15,1,15,0.04
2014-5-10,75,65,58,68,62,57,97,90,71,30.14,30.03,8,0,8,0.05
2014-5-11,86,68,53,65,58,52,98,76,36,30.18,30.07,7,0,7,0.00
2014-5-12,87,71,54,68,60,53,97,73,41,30.21,30.11,9,1,9,0.00
2014-5-13,88,73,59,70,63,58,97,76,44,30.16,30.07,11,1,11,0.00
2014-5-14,83,72,61,68,62,58,97,73,45,30.15,30.02,11,1,11,0.00
2014-5-15,73,66,53,68,63,50,96,91,67,30.04,29.84,10,1,10,1.40
2014-5-16,70,57,43,50,44,35,95,65,35,30.13,29.91,9,1,9,0.00
2014-5-17,68,54,37,52,42,36,96,67,38,30.23,30.12,9,0,9,0.00
2014-5-18,65,55,48,51,46,41,93,74,49,30.29,30.20,6,0,6,0.00
2014-5-19,72,57,41,55,46,40,97,72,40,30.35,30.23,9,1,9,0.00
2014-5-20,77,62,44,61,54,43,96,77,50,30.32,30.11,12,1,12,0.00
2014-5-21,87,71,52,64,57,51,97,67,37,30.13,29.97,12,1,12,0.00
2014-5-22,87,74,62,66,62,58,91,67,43,30.07,29.94,18,0,18,0.02
2014-5-23,84,70,61,66,61,54,96,75,43,30.11,29.96,8,0,8,0.02
2014-5-24,80,67,50,56,51,47,93,62,32,30.16,30.05,7,0,8,0.00
2014-5-25,80,67,52,65,58,50,95,74,47,30.21,30.12,6,0,6,0.00
2014-5-26,86,71,56,67,61,55,97,75,46,30.22,30.07,7,0,7,0.00
2014-5-27,85,71,60,70,65,59,97,83,52,30.13,30.00,6,0,6,0.01
2014-5-28,87,73,61,70,64,60,97,77,42,30.05,29.97,8,0,8,0.01
2014-5-29,87,71,60,69,63,59,97,81,45,30.12,29.99,6,0,8,0.16
2014-5-30,86,71,64,72,67,63,98,89,56,30.12,30.05,6,0,6,0.19
2014-5-31,78,69,61,67,64,59,97,87,58,30.21,30.11,3,0,4,0.20
2014-6-1,72,64,56,64,59,54,97,84,67,30.35,30.21,6,0,6,0.00
2014-6-2,79,66,52,62,57,51,97,75,48,30.31,30.15,7,0,7,0.00
2014-6-3,81,69,54,68,61,53,97,78,57,30.16,29.99,5,0,5,0.00
2014-6-4,89,74,58,69,63,57,97,72,39,30.01,29.78,9,1,10,0.00
2014-6-5,86,76,66,71,66,63,96,74,52,29.87,29.74,7,0,9,0.01
2014-6-6,84,72,60,66,62,59,96,73,48,29.96,29.85,5,0,5,0.00
2014-6-7,83,72,61,69,64,59,94,76,51,30.03,29.94,8,0,8,0.00
2014-6-8,81,73,69,72,68,65,96,87,67,29.99,29.83,9,1,9,0.57
2014-6-9,84,73,66,71,68,65,97,84,57,29.93,29.83,8,0,8,0.23
2014-6-10,90,77,66,73,66,62,98,73,42,29.99,29.88,11,1,12,0.05
2014-6-11,83,72,64,71,66,62,96,85,61,30.00,29.83,9,0,9,0.13
2014-6-12,82,71,66,71,66,64,97,86,58,29.94,29.84,8,0,8,0.35
2014-6-13,84,72,64,69,65,61,97,81,47,29.92,29.82,8,0,8,0.11
2014-6-14,84,72,58,69,64,57,98,78,50,30.08,29.92,6,0,6,0.00
2014-6-15,85,74,64,67,64,59,96,73,44,30.21,30.07,6,0,6,0.00
2014-6-16,91,75,64,72,67,62,96,78,45,30.21,30.12,7,0,7,0.00
2014-6-17,93,78,64,72,68,63,97,75,39,30.19,30.07,7,0,7,0.00
2014-6-18,93,76,66,74,68,65,97,78,42,30.14,30.06,6,0,6,0.00
2014-6-19,93,74,64,73,67,63,97,81,44,30.13,30.04,16,0,16,0.15
2014-6-20,90,73,64,74,68,63,97,86,50,30.08,29.94,9,0,9,0.05
2014-6-21,87,75,65,75,68,64,98,80,55,29.97,29.83,6,0,6,0.00
2014-6-22,88,76,63,71,65,60,96,72,40,29.98,29.85,4,0,4,0.00
2014-6-23,83,75,68,71,68,65,92,80,59,30.11,29.98,5,0,5,0.00
2014-6-24,83,74,68,72,69,67,97,87,63,30.12,30.01,10,0,10,0.10
2014-6-25,84,76,69,73,70,67,97,83,60,30.03,29.92,9,0,9,0.00
2014-6-26,88,77,67,71,67,62,96,75,44,30.03,29.92,7,0,7,0.00
2014-6-27,86,76,68,72,69,65,93,78,57,30.13,29.99,6,0,6,0.00
2014-6-28,80,74,68,73,69,66,95,86,70,30.23,30.10,6,0,6,0.01
2014-6-29,80,72,66,72,69,65,97,91,75,30.26,30.14,4,0,4,1.03
2014-6-30,84,72,66,73,69,65,97,89,61,30.14,29.97,4,0,5,0.01
2014-7-1,90,78,67,76,70,66,97,80,50,30.01,29.88,9,0,9,0.00
2014-7-2,93,81,68,76,71,63,97,74,40,29.96,29.90,8,0,8,0.00
2014-7-3,90,78,67,75,69,62,95,75,54,29.98,29.87,5,0,6,0.00
2014-7-4,84,72,59,62,58,51,94,64,35,30.22,29.97,6,0,6,0.00
2014-7-5,81,70,53,59,54,50,91,60,38,30.32,30.20,7,0,7,0.00
2014-7-6,86,71,55,66,59,53,96,70,41,30.22,30.05,7,0,7,0.00
2014-7-7,90,75,58,69,62,56,96,69,37,30.08,29.93,10,1,10,0.00
2014-7-8,91,77,62,72,66,60,96,72,44,30.02,29.90,11,1,11,0.00
2014-7-9,86,77,69,70,68,65,92,75,54,30.04,29.93,7,0,7,0.01
2014-7-10,85,72,66,74,68,64,97,89,55,30.13,29.99,9,0,9,0.73
2014-7-11,86,75,65,73,68,64,97,81,53,30.22,30.11,8,0,8,0.00
2014-7-12,88,76,65,74,68,64,97,79,50,30.23,30.13,7,0,7,0.00
2014-7-13,88,77,66,74,70,65,97,80,56,30.15,30.02,9,0,9,0.00
2014-7-14,93,79,68,75,69,65,97,74,43,30.03,29.86,10,1,10,0.00
2014-7-15,89,77,66,72,67,61,96,74,52,29.90,29.76,7,0,7,0.00
2014-7-16,81,71,60,62,58,54,94,67,41,29.97,29.83,5,0,5,0.00
2014-7-17,83,70,56,61,56,53,92,64,38,30.11,29.97,7,0,7,0.00
2014-7-18,68,65,62,67,63,59,97,93,83,30.22,30.11,2,0,2,0.48
2014-7-19,68,65,63,67,64,62,98,96,94,30.20,30.13,2,0,2,0.26
2014-7-20,78,70,63,71,66,62,98,89,69,30.16,30.06,3,0,5,0.01
2014-7-21,76,72,68,72,70,66,97,92,82,30.16,30.07,2,0,2,0.00
2014-7-22,83,74,69,74,71,68,98,89,68,30.18,30.09,6,0,6,0.02
2014-7-23,90,75,67,76,70,66,98,87,50,30.13,29.94,7,0,12,0.11
2014-7-24,86,74,69,75,71,68,98,91,65,29.97,29.85,5,0,5,0.39
2014-7-25,84,75,66,71,68,65,98,82,56,30.07,29.97,6,0,6,0.00
2014-7-26,88,77,64,74,67,63,97,76,48,30.04,29.94,6,0,6,0.00
2014-7-27,90,77,69,74,70,66,96,80,48,29.98,29.77,8,0,8,0.09
2014-7-28,85,74,64,72,63,57,97,71,41,29.93,29.80,11,1,11,0.21
2014-7-29,80,69,57,62,57,55,93,68,43,30.04,29.90,6,0,6,0.00
2014-7-30,80,68,54,62,56,53,95,71,41,30.11,30.03,6,0,6,0.00
2014-7-31,72,65,59,68,62,57,95,91,84,30.17,30.09,2,0,3,0.13
2014-8-1,66,64,63,65,63,62,97,97,95,30.17,30.11,4,0,4,1.02
2014-8-2,74,68,64,68,65,63,98,92,78,30.17,30.08,5,0,5,0.00
2014-8-3,85,73,62,71,66,61,98,80,48,30.14,30.03,5,0,5,0.00
2014-8-4,85,74,63,70,66,62,96,78,52,30.12,30.03,5,0,5,0.00
2014-8-5,85,75,65,72,68,64,96,80,54,30.09,29.99,5,0,6,0.16
2014-8-6,86,73,62,71,66,61,97,81,50,30.04,29.94,10,0,10,0.00
2014-8-7,86,74,63,71,67,62,97,79,49,30.05,29.95,5,0,5,0.00
2014-8-8,75,69,64,73,68,63,97,95,90,30.14,30.04,4,0,4,0.23
2014-8-9,78,70,65,74,69,63,98,95,85,30.12,30.02,6,0,6,0.22
2014-8-10,70,66,64,69,66,62,98,97,94,30.13,30.05,2,0,2,1.45
2014-8-11,81,72,68,76,70,67,99,94,78,30.10,29.94,3,0,3,1.39
2014-8-12,84,75,70,76,72,69,98,91,73,29.96,29.77,7,0,7,0.24
2014-8-13,80,71,60,70,63,58,98,79,52,30.03,29.85,8,0,8,0.00
2014-8-14,81,68,55,66,60,54,97,77,46,30.09,29.98,8,0,8,0.00
2014-8-15,84,71,59,70,63,58,97,80,47,30.07,29.97,4,0,4,0.00
2014-8-16,86,74,63,70,65,60,95,77,42,30.07,29.99,8,0,8,0.00
2014-8-17,87,75,64,72,67,62,93,79,51,30.04,29.95,6,0,6,0.00
2014-8-18,88,76,69,76,70,64,89,80,60,29.97,29.78,6,0,6,0.15
2014-8-19,87,76,65,73,67,60,84,73,51,29.93,29.81,4,0,6,0.72
2014-8-20,88,76,66,75,67,58,81,72,55,30.07,29.91,7,0,7,0.01
2014-8-21,90,77,65,75,66,56,79,69,53,30.12,30.00,5,0,5,0.00
2014-8-22,92,80,69,75,66,56,73,64,48,30.08,29.95,7,0,8,0.04
2014-8-23,90,76,69,76,58,41,70,54,32,30.00,29.90,7,0,7,0.50
2014-8-24,74,71,68,60,41,24,60,35,18,30.14,29.97,3,0,3,0.00
2014-8-25,80,71,60,65,44,14,67,42,15,30.17,30.09,4,0,4,0.00
2014-8-26,81,68,56,65,33,-19,67,34,3,30.21,30.10,3,0,5,0.00